sensor_id;sensor_type;location;lat;lon;timestamp;P1;durP1;ratioP1;P2;durP2;ratioP2
10831;SDS011;5469;48.574;8.768;2023-06-26T00:01:42;3.45;;;2.47;;
10831;SDS011;5469;48.574;8.768;2023-06-26T00:04:16;3.08;;;2.35;;
10831;SDS011;5469;48.574;8.768;2023-06-26T00:06:51;3.22;;;2.40;;
10831;SDS011;5469;48.574;8.768;2023-06-26T00:09:26;4.25;;;1.90;;
10831;SDS011;5469;48.574;8.768;2023-06-26T00:12:01;2.97;;;2.47;;
10831;SDS011;5469;48.574;8.768;2023-06-26T00:14:38;3.13;;;2.05;;
10831;SDS011;5469;48.574;8.768;2023-06-26T00:17:13;3.00;;;2.20;;
10831;SDS011;5469;48.574;8.768;2023-06-26T00:19:48;2.88;;;2.25;;
10831;SDS011;5469;48.574;8.768;2023-06-26T00:22:24;3.05;;;2.13;;
10831;SDS011;5469;48.574;8.768;2023-06-26T00:24:59;3.53;;;2.42;;
10831;SDS011;5469;48.574;8.768;2023-06-26T00:27:35;4.05;;;2.40;;
10831;SDS011;5469;48.574;8.768;2023-06-26T00:30:12;3.42;;;2.28;;
10831;SDS011;5469;48.574;8.768;2023-06-26T00:32:47;3.88;;;2.38;;
10831;SDS011;5469;48.574;8.768;2023-06-26T00:35:22;3.63;;;2.35;;
10831;SDS011;5469;48.574;8.768;2023-06-26T00:37:57;2.63;;;2.17;;
10831;SDS011;5469;48.574;8.768;2023-06-26T00:40:33;2.55;;;2.30;;
10831;SDS011;5469;48.574;8.768;2023-06-26T00:43:07;4.20;;;2.45;;
10831;SDS011;5469;48.574;8.768;2023-06-26T00:45:44;3.20;;;2.30;;
10831;SDS011;5469;48.574;8.768;2023-06-26T00:48:19;2.50;;;2.00;;
10831;SDS011;5469;48.574;8.768;2023-06-26T00:50:54;2.80;;;2.13;;
10831;SDS011;5469;48.574;8.768;2023-06-26T00:53:30;3.60;;;2.47;;
10831;SDS011;5469;48.574;8.768;2023-06-26T00:56:05;2.88;;;2.30;;
10831;SDS011;5469;48.574;8.768;2023-06-26T00:58:41;3.15;;;2.22;;
10831;SDS011;5469;48.574;8.768;2023-06-26T01:01:18;5.28;;;2.58;;
10831;SDS011;5469;48.574;8.768;2023-06-26T01:03:57;2.35;;;2.15;;
10831;SDS011;5469;48.574;8.768;2023-06-26T01:06:32;3.45;;;2.33;;
10831;SDS011;5469;48.574;8.768;2023-06-26T01:09:08;3.58;;;2.78;;
10831;SDS011;5469;48.574;8.768;2023-06-26T01:11:43;4.88;;;2.90;;
10831;SDS011;5469;48.574;8.768;2023-06-26T01:14:18;2.65;;;2.30;;
10831;SDS011;5469;48.574;8.768;2023-06-26T01:16:55;3.03;;;2.28;;
10831;SDS011;5469;48.574;8.768;2023-06-26T01:19:33;3.75;;;2.10;;
10831;SDS011;5469;48.574;8.768;2023-06-26T01:22:10;3.53;;;2.53;;
10831;SDS011;5469;48.574;8.768;2023-06-26T01:24:54;4.00;;;2.65;;
10831;SDS011;5469;48.574;8.768;2023-06-26T01:27:43;2.65;;;2.30;;
10831;SDS011;5469;48.574;8.768;2023-06-26T01:30:19;2.45;;;2.25;;
10831;SDS011;5469;48.574;8.768;2023-06-26T01:32:56;3.63;;;2.42;;
10831;SDS011;5469;48.574;8.768;2023-06-26T01:35:31;3.33;;;2.67;;
10831;SDS011;5469;48.574;8.768;2023-06-26T01:38:14;3.22;;;2.53;;
10831;SDS011;5469;48.574;8.768;2023-06-26T01:40:51;3.03;;;1.90;;
10831;SDS011;5469;48.574;8.768;2023-06-26T01:43:29;3.55;;;2.40;;
10831;SDS011;5469;48.574;8.768;2023-06-26T01:46:15;2.95;;;2.60;;
10831;SDS011;5469;48.574;8.768;2023-06-26T01:49:02;3.60;;;2.80;;
10831;SDS011;5469;48.574;8.768;2023-06-26T01:51:41;2.78;;;2.30;;
10831;SDS011;5469;48.574;8.768;2023-06-26T01:54:18;3.70;;;2.50;;
10831;SDS011;5469;48.574;8.768;2023-06-26T01:56:58;4.13;;;2.72;;
10831;SDS011;5469;48.574;8.768;2023-06-26T01:59:35;2.03;;;1.90;;
10831;SDS011;5469;48.574;8.768;2023-06-26T02:02:13;3.30;;;2.25;;
10831;SDS011;5469;48.574;8.768;2023-06-26T02:04:49;4.50;;;2.70;;
10831;SDS011;5469;48.574;8.768;2023-06-26T02:07:24;2.67;;;2.22;;
10831;SDS011;5469;48.574;8.768;2023-06-26T02:09:59;3.75;;;2.80;;
10831;SDS011;5469;48.574;8.768;2023-06-26T02:12:34;3.35;;;2.72;;
10831;SDS011;5469;48.574;8.768;2023-06-26T02:15:11;2.53;;;2.28;;
10831;SDS011;5469;48.574;8.768;2023-06-26T02:17:46;3.83;;;2.78;;
10831;SDS011;5469;48.574;8.768;2023-06-26T02:20:21;3.42;;;2.45;;
10831;SDS011;5469;48.574;8.768;2023-06-26T02:22:56;3.33;;;2.40;;
10831;SDS011;5469;48.574;8.768;2023-06-26T02:25:32;2.58;;;2.35;;
10831;SDS011;5469;48.574;8.768;2023-06-26T02:28:08;2.60;;;2.40;;
10831;SDS011;5469;48.574;8.768;2023-06-26T02:30:44;4.88;;;3.05;;
10831;SDS011;5469;48.574;8.768;2023-06-26T02:33:19;3.17;;;2.53;;
10831;SDS011;5469;48.574;8.768;2023-06-26T02:35:54;3.60;;;2.15;;
10831;SDS011;5469;48.574;8.768;2023-06-26T02:38:29;3.40;;;2.78;;
10831;SDS011;5469;48.574;8.768;2023-06-26T02:41:04;5.95;;;2.90;;
10831;SDS011;5469;48.574;8.768;2023-06-26T02:43:39;3.33;;;2.65;;
10831;SDS011;5469;48.574;8.768;2023-06-26T02:46:15;3.10;;;2.40;;
10831;SDS011;5469;48.574;8.768;2023-06-26T02:48:50;4.05;;;2.70;;
10831;SDS011;5469;48.574;8.768;2023-06-26T02:51:25;4.07;;;3.40;;
10831;SDS011;5469;48.574;8.768;2023-06-26T02:54:00;3.33;;;2.78;;
10831;SDS011;5469;48.574;8.768;2023-06-26T02:56:35;2.92;;;2.45;;
10831;SDS011;5469;48.574;8.768;2023-06-26T02:59:10;4.47;;;2.55;;
10831;SDS011;5469;48.574;8.768;2023-06-26T03:01:46;3.00;;;2.45;;
10831;SDS011;5469;48.574;8.768;2023-06-26T03:04:21;4.10;;;2.95;;
10831;SDS011;5469;48.574;8.768;2023-06-26T03:06:56;3.13;;;2.42;;
10831;SDS011;5469;48.574;8.768;2023-06-26T03:09:31;4.45;;;2.60;;
10831;SDS011;5469;48.574;8.768;2023-06-26T03:12:06;3.20;;;2.40;;
10831;SDS011;5469;48.574;8.768;2023-06-26T03:14:42;2.97;;;2.17;;
10831;SDS011;5469;48.574;8.768;2023-06-26T03:17:18;4.47;;;2.40;;
10831;SDS011;5469;48.574;8.768;2023-06-26T03:19:53;3.90;;;2.85;;
10831;SDS011;5469;48.574;8.768;2023-06-26T03:22:28;3.42;;;2.30;;
10831;SDS011;5469;48.574;8.768;2023-06-26T03:25:03;3.28;;;2.55;;
10831;SDS011;5469;48.574;8.768;2023-06-26T03:27:39;4.55;;;2.53;;
10831;SDS011;5469;48.574;8.768;2023-06-26T03:30:14;3.92;;;2.75;;
10831;SDS011;5469;48.574;8.768;2023-06-26T03:32:50;2.95;;;2.30;;
10831;SDS011;5469;48.574;8.768;2023-06-26T03:35:25;3.45;;;2.50;;
10831;SDS011;5469;48.574;8.768;2023-06-26T03:38:00;4.88;;;3.10;;
10831;SDS011;5469;48.574;8.768;2023-06-26T03:40:36;4.22;;;2.88;;
10831;SDS011;5469;48.574;8.768;2023-06-26T03:43:11;4.35;;;2.80;;
10831;SDS011;5469;48.574;8.768;2023-06-26T03:45:46;2.80;;;2.25;;
10831;SDS011;5469;48.574;8.768;2023-06-26T03:48:22;6.03;;;2.85;;
10831;SDS011;5469;48.574;8.768;2023-06-26T03:50:57;3.85;;;2.53;;
10831;SDS011;5469;48.574;8.768;2023-06-26T03:53:33;2.80;;;2.42;;
10831;SDS011;5469;48.574;8.768;2023-06-26T03:56:09;4.50;;;2.50;;
10831;SDS011;5469;48.574;8.768;2023-06-26T03:58:45;3.50;;;2.45;;
10831;SDS011;5469;48.574;8.768;2023-06-26T04:01:20;2.80;;;2.50;;
10831;SDS011;5469;48.574;8.768;2023-06-26T04:03:56;4.07;;;2.35;;
10831;SDS011;5469;48.574;8.768;2023-06-26T04:06:32;3.90;;;2.88;;
10831;SDS011;5469;48.574;8.768;2023-06-26T04:09:08;4.20;;;2.28;;
10831;SDS011;5469;48.574;8.768;2023-06-26T04:11:45;5.38;;;2.70;;
10831;SDS011;5469;48.574;8.768;2023-06-26T04:14:20;2.97;;;2.53;;
10831;SDS011;5469;48.574;8.768;2023-06-26T04:16:55;4.00;;;2.45;;
10831;SDS011;5469;48.574;8.768;2023-06-26T04:19:34;3.55;;;2.30;;
10831;SDS011;5469;48.574;8.768;2023-06-26T04:22:09;4.50;;;2.38;;
10831;SDS011;5469;48.574;8.768;2023-06-26T04:24:44;3.58;;;2.60;;
10831;SDS011;5469;48.574;8.768;2023-06-26T04:27:19;3.40;;;2.55;;
10831;SDS011;5469;48.574;8.768;2023-06-26T04:29:54;2.28;;;1.95;;
10831;SDS011;5469;48.574;8.768;2023-06-26T04:32:29;2.75;;;2.20;;
10831;SDS011;5469;48.574;8.768;2023-06-26T04:35:05;2.35;;;1.98;;
10831;SDS011;5469;48.574;8.768;2023-06-26T04:37:42;2.88;;;2.33;;
10831;SDS011;5469;48.574;8.768;2023-06-26T04:40:18;6.50;;;2.22;;
10831;SDS011;5469;48.574;8.768;2023-06-26T04:42:53;4.65;;;2.50;;
10831;SDS011;5469;48.574;8.768;2023-06-26T04:45:27;3.60;;;2.40;;
10831;SDS011;5469;48.574;8.768;2023-06-26T04:48:03;3.58;;;2.40;;
10831;SDS011;5469;48.574;8.768;2023-06-26T04:50:40;4.60;;;2.45;;
10831;SDS011;5469;48.574;8.768;2023-06-26T04:53:15;3.55;;;2.50;;
10831;SDS011;5469;48.574;8.768;2023-06-26T04:55:51;2.25;;;1.85;;
10831;SDS011;5469;48.574;8.768;2023-06-26T04:58:26;4.60;;;2.70;;
10831;SDS011;5469;48.574;8.768;2023-06-26T05:01:01;3.50;;;2.17;;
10831;SDS011;5469;48.574;8.768;2023-06-26T05:03:38;2.70;;;2.40;;
10831;SDS011;5469;48.574;8.768;2023-06-26T05:06:14;2.67;;;2.20;;
10831;SDS011;5469;48.574;8.768;2023-06-26T05:08:49;2.65;;;2.33;;
10831;SDS011;5469;48.574;8.768;2023-06-26T05:11:26;2.95;;;2.10;;
10831;SDS011;5469;48.574;8.768;2023-06-26T05:14:01;3.00;;;2.30;;
10831;SDS011;5469;48.574;8.768;2023-06-26T05:16:38;3.20;;;2.10;;
10831;SDS011;5469;48.574;8.768;2023-06-26T05:19:13;2.70;;;2.10;;
10831;SDS011;5469;48.574;8.768;2023-06-26T05:21:49;3.72;;;2.25;;
10831;SDS011;5469;48.574;8.768;2023-06-26T05:24:26;3.83;;;2.25;;
10831;SDS011;5469;48.574;8.768;2023-06-26T05:27:02;3.15;;;2.00;;
10831;SDS011;5469;48.574;8.768;2023-06-26T05:29:38;2.90;;;1.95;;
10831;SDS011;5469;48.574;8.768;2023-06-26T05:32:15;3.55;;;2.35;;
10831;SDS011;5469;48.574;8.768;2023-06-26T05:34:51;2.80;;;1.90;;
10831;SDS011;5469;48.574;8.768;2023-06-26T05:37:28;3.88;;;2.47;;
10831;SDS011;5469;48.574;8.768;2023-06-26T05:40:04;4.22;;;2.28;;
10831;SDS011;5469;48.574;8.768;2023-06-26T05:42:40;2.33;;;1.95;;
10831;SDS011;5469;48.574;8.768;2023-06-26T05:45:16;3.80;;;2.30;;
10831;SDS011;5469;48.574;8.768;2023-06-26T05:47:51;2.30;;;2.10;;
10831;SDS011;5469;48.574;8.768;2023-06-26T05:50:27;3.92;;;2.38;;
10831;SDS011;5469;48.574;8.768;2023-06-26T05:53:05;3.33;;;2.13;;
10831;SDS011;5469;48.574;8.768;2023-06-26T05:55:41;4.00;;;2.20;;
10831;SDS011;5469;48.574;8.768;2023-06-26T05:58:17;2.20;;;1.75;;
10831;SDS011;5469;48.574;8.768;2023-06-26T06:00:53;2.88;;;2.00;;
10831;SDS011;5469;48.574;8.768;2023-06-26T06:03:28;3.03;;;2.08;;
10831;SDS011;5469;48.574;8.768;2023-06-26T06:06:03;1.98;;;1.77;;
10831;SDS011;5469;48.574;8.768;2023-06-26T06:08:40;2.28;;;1.90;;
10831;SDS011;5469;48.574;8.768;2023-06-26T06:11:15;2.35;;;1.80;;
10831;SDS011;5469;48.574;8.768;2023-06-26T06:13:50;2.03;;;1.83;;
10831;SDS011;5469;48.574;8.768;2023-06-26T06:16:25;2.63;;;2.03;;
10831;SDS011;5469;48.574;8.768;2023-06-26T06:19:00;2.13;;;1.80;;
10831;SDS011;5469;48.574;8.768;2023-06-26T06:21:38;2.63;;;2.33;;
10831;SDS011;5469;48.574;8.768;2023-06-26T06:24:16;2.40;;;2.15;;
10831;SDS011;5469;48.574;8.768;2023-06-26T06:26:52;2.40;;;2.20;;
10831;SDS011;5469;48.574;8.768;2023-06-26T06:29:27;3.80;;;2.40;;
10831;SDS011;5469;48.574;8.768;2023-06-26T06:32:02;2.42;;;2.17;;
10831;SDS011;5469;48.574;8.768;2023-06-26T06:34:38;3.22;;;1.98;;
10831;SDS011;5469;48.574;8.768;2023-06-26T06:37:12;2.88;;;2.17;;
10831;SDS011;5469;48.574;8.768;2023-06-26T06:39:49;2.38;;;2.10;;
10831;SDS011;5469;48.574;8.768;2023-06-26T06:42:24;4.45;;;1.95;;
10831;SDS011;5469;48.574;8.768;2023-06-26T06:45:00;1.95;;;1.85;;
10831;SDS011;5469;48.574;8.768;2023-06-26T06:47:36;2.65;;;2.10;;
10831;SDS011;5469;48.574;8.768;2023-06-26T06:50:11;2.85;;;2.08;;
10831;SDS011;5469;48.574;8.768;2023-06-26T06:52:47;2.92;;;2.25;;
10831;SDS011;5469;48.574;8.768;2023-06-26T06:55:23;4.88;;;2.45;;
10831;SDS011;5469;48.574;8.768;2023-06-26T06:57:58;2.38;;;1.90;;
10831;SDS011;5469;48.574;8.768;2023-06-26T07:00:34;2.75;;;2.10;;
10831;SDS011;5469;48.574;8.768;2023-06-26T07:03:11;3.28;;;2.08;;
10831;SDS011;5469;48.574;8.768;2023-06-26T07:05:46;2.58;;;2.20;;
10831;SDS011;5469;48.574;8.768;2023-06-26T07:08:21;4.25;;;2.40;;
10831;SDS011;5469;48.574;8.768;2023-06-26T07:10:57;2.33;;;2.13;;
10831;SDS011;5469;48.574;8.768;2023-06-26T07:13:33;2.67;;;2.10;;
10831;SDS011;5469;48.574;8.768;2023-06-26T07:16:08;2.92;;;1.85;;
10831;SDS011;5469;48.574;8.768;2023-06-26T07:18:43;2.58;;;2.03;;
10831;SDS011;5469;48.574;8.768;2023-06-26T07:21:18;2.38;;;2.05;;
10831;SDS011;5469;48.574;8.768;2023-06-26T07:23:53;2.22;;;1.90;;
10831;SDS011;5469;48.574;8.768;2023-06-26T07:26:30;2.20;;;1.90;;
10831;SDS011;5469;48.574;8.768;2023-06-26T07:29:04;3.22;;;2.10;;
10831;SDS011;5469;48.574;8.768;2023-06-26T07:31:39;4.35;;;2.33;;
10831;SDS011;5469;48.574;8.768;2023-06-26T07:34:16;2.58;;;2.35;;
10831;SDS011;5469;48.574;8.768;2023-06-26T07:36:51;3.05;;;2.08;;
10831;SDS011;5469;48.574;8.768;2023-06-26T07:39:26;2.00;;;1.63;;
10831;SDS011;5469;48.574;8.768;2023-06-26T07:42:02;2.42;;;2.17;;
10831;SDS011;5469;48.574;8.768;2023-06-26T07:44:38;3.05;;;2.22;;
10831;SDS011;5469;48.574;8.768;2023-06-26T07:47:14;2.58;;;2.08;;
10831;SDS011;5469;48.574;8.768;2023-06-26T07:49:49;3.22;;;2.03;;
10831;SDS011;5469;48.574;8.768;2023-06-26T07:52:24;2.22;;;1.88;;
10831;SDS011;5469;48.574;8.768;2023-06-26T07:54:59;2.53;;;2.22;;
10831;SDS011;5469;48.574;8.768;2023-06-26T07:57:36;1.92;;;1.65;;
10831;SDS011;5469;48.574;8.768;2023-06-26T08:00:11;1.77;;;1.67;;
10831;SDS011;5469;48.574;8.768;2023-06-26T08:02:48;2.10;;;1.90;;
10831;SDS011;5469;48.574;8.768;2023-06-26T08:05:22;3.67;;;2.10;;
10831;SDS011;5469;48.574;8.768;2023-06-26T08:07:57;4.47;;;1.77;;
10831;SDS011;5469;48.574;8.768;2023-06-26T08:10:34;2.28;;;1.83;;
10831;SDS011;5469;48.574;8.768;2023-06-26T08:13:11;3.63;;;1.90;;
10831;SDS011;5469;48.574;8.768;2023-06-26T08:15:46;2.42;;;1.85;;
10831;SDS011;5469;48.574;8.768;2023-06-26T08:18:21;2.20;;;2.00;;
10831;SDS011;5469;48.574;8.768;2023-06-26T08:20:56;1.80;;;1.70;;
10831;SDS011;5469;48.574;8.768;2023-06-26T08:23:31;2.22;;;1.83;;
10831;SDS011;5469;48.574;8.768;2023-06-26T08:26:07;2.00;;;1.75;;
10831;SDS011;5469;48.574;8.768;2023-06-26T08:28:43;2.60;;;2.08;;
10831;SDS011;5469;48.574;8.768;2023-06-26T08:31:18;2.35;;;1.92;;
10831;SDS011;5469;48.574;8.768;2023-06-26T08:33:54;2.65;;;2.05;;
10831;SDS011;5469;48.574;8.768;2023-06-26T08:36:29;2.47;;;1.80;;
10831;SDS011;5469;48.574;8.768;2023-06-26T08:39:05;1.98;;;1.80;;
10831;SDS011;5469;48.574;8.768;2023-06-26T08:41:41;2.15;;;1.75;;
10831;SDS011;5469;48.574;8.768;2023-06-26T08:44:17;2.80;;;2.03;;
10831;SDS011;5469;48.574;8.768;2023-06-26T08:46:55;4.90;;;2.47;;
10831;SDS011;5469;48.574;8.768;2023-06-26T08:49:34;2.47;;;2.00;;
10831;SDS011;5469;48.574;8.768;2023-06-26T08:52:19;2.10;;;1.90;;
10831;SDS011;5469;48.574;8.768;2023-06-26T08:55:02;1.90;;;1.73;;
10831;SDS011;5469;48.574;8.768;2023-06-26T08:57:43;2.33;;;2.03;;
10831;SDS011;5469;48.574;8.768;2023-06-26T09:00:21;4.25;;;2.30;;
10831;SDS011;5469;48.574;8.768;2023-06-26T09:02:56;3.22;;;2.20;;
10831;SDS011;5469;48.574;8.768;2023-06-26T09:05:32;2.00;;;1.85;;
10831;SDS011;5469;48.574;8.768;2023-06-26T09:08:07;1.75;;;1.58;;
10831;SDS011;5469;48.574;8.768;2023-06-26T09:10:42;3.83;;;2.53;;
10831;SDS011;5469;48.574;8.768;2023-06-26T09:13:17;1.85;;;1.55;;
10831;SDS011;5469;48.574;8.768;2023-06-26T09:15:54;2.17;;;1.85;;
10831;SDS011;5469;48.574;8.768;2023-06-26T09:18:30;4.07;;;1.92;;
10831;SDS011;5469;48.574;8.768;2023-06-26T09:21:06;3.13;;;1.80;;
10831;SDS011;5469;48.574;8.768;2023-06-26T09:23:42;2.95;;;1.88;;
10831;SDS011;5469;48.574;8.768;2023-06-26T09:26:18;2.67;;;2.15;;
10831;SDS011;5469;48.574;8.768;2023-06-26T09:28:55;3.05;;;2.30;;
10831;SDS011;5469;48.574;8.768;2023-06-26T09:31:33;2.28;;;2.03;;
10831;SDS011;5469;48.574;8.768;2023-06-26T09:34:09;2.20;;;2.00;;
10831;SDS011;5469;48.574;8.768;2023-06-26T09:36:45;2.15;;;2.00;;
10831;SDS011;5469;48.574;8.768;2023-06-26T09:39:20;1.80;;;1.70;;
10831;SDS011;5469;48.574;8.768;2023-06-26T09:41:56;2.40;;;2.00;;
10831;SDS011;5469;48.574;8.768;2023-06-26T09:44:31;4.78;;;2.42;;
10831;SDS011;5469;48.574;8.768;2023-06-26T09:47:07;3.22;;;1.90;;
10831;SDS011;5469;48.574;8.768;2023-06-26T09:49:42;3.10;;;2.22;;
10831;SDS011;5469;48.574;8.768;2023-06-26T09:52:18;2.55;;;2.00;;
10831;SDS011;5469;48.574;8.768;2023-06-26T09:55:06;3.05;;;2.00;;
10831;SDS011;5469;48.574;8.768;2023-06-26T09:57:43;2.53;;;2.25;;
10831;SDS011;5469;48.574;8.768;2023-06-26T10:00:18;2.28;;;2.08;;
10831;SDS011;5469;48.574;8.768;2023-06-26T10:02:56;3.13;;;2.22;;
10831;SDS011;5469;48.574;8.768;2023-06-26T10:05:31;3.35;;;2.30;;
10831;SDS011;5469;48.574;8.768;2023-06-26T10:08:06;2.22;;;1.95;;
10831;SDS011;5469;48.574;8.768;2023-06-26T10:10:45;2.58;;;2.30;;
10831;SDS011;5469;48.574;8.768;2023-06-26T10:13:22;2.25;;;2.05;;
10831;SDS011;5469;48.574;8.768;2023-06-26T10:16:00;3.67;;;2.35;;
10831;SDS011;5469;48.574;8.768;2023-06-26T10:18:41;2.85;;;2.20;;
10831;SDS011;5469;48.574;8.768;2023-06-26T10:21:18;2.40;;;2.08;;
10831;SDS011;5469;48.574;8.768;2023-06-26T10:23:55;2.53;;;2.33;;
10831;SDS011;5469;48.574;8.768;2023-06-26T10:26:31;4.32;;;2.33;;
10831;SDS011;5469;48.574;8.768;2023-06-26T10:29:11;2.50;;;2.30;;
10831;SDS011;5469;48.574;8.768;2023-06-26T10:31:49;3.95;;;2.40;;
10831;SDS011;5469;48.574;8.768;2023-06-26T10:34:30;4.00;;;2.60;;
10831;SDS011;5469;48.574;8.768;2023-06-26T10:37:06;2.75;;;2.38;;
10831;SDS011;5469;48.574;8.768;2023-06-26T10:39:48;3.22;;;2.92;;
10831;SDS011;5469;48.574;8.768;2023-06-26T10:42:34;4.07;;;2.88;;
10831;SDS011;5469;48.574;8.768;2023-06-26T10:45:13;3.92;;;2.45;;
10831;SDS011;5469;48.574;8.768;2023-06-26T10:47:51;4.10;;;2.45;;
10831;SDS011;5469;48.574;8.768;2023-06-26T10:50:29;3.42;;;2.50;;
10831;SDS011;5469;48.574;8.768;2023-06-26T10:53:07;2.60;;;2.40;;
10831;SDS011;5469;48.574;8.768;2023-06-26T10:55:47;2.80;;;2.50;;
10831;SDS011;5469;48.574;8.768;2023-06-26T10:58:29;2.22;;;2.05;;
10831;SDS011;5469;48.574;8.768;2023-06-26T11:01:14;2.65;;;2.42;;
10831;SDS011;5469;48.574;8.768;2023-06-26T11:04:00;4.22;;;2.25;;
10831;SDS011;5469;48.574;8.768;2023-06-26T11:06:38;3.20;;;2.58;;
10831;SDS011;5469;48.574;8.768;2023-06-26T11:09:17;2.45;;;2.25;;
10831;SDS011;5469;48.574;8.768;2023-06-26T11:11:59;3.67;;;2.58;;
10831;SDS011;5469;48.574;8.768;2023-06-26T11:14:37;2.63;;;2.35;;
10831;SDS011;5469;48.574;8.768;2023-06-26T11:17:12;3.30;;;2.42;;
10831;SDS011;5469;48.574;8.768;2023-06-26T11:19:51;3.20;;;2.30;;
10831;SDS011;5469;48.574;8.768;2023-06-26T11:22:29;3.50;;;2.83;;
10831;SDS011;5469;48.574;8.768;2023-06-26T11:25:07;3.00;;;2.50;;
10831;SDS011;5469;48.574;8.768;2023-06-26T11:27:44;2.42;;;2.20;;
10831;SDS011;5469;48.574;8.768;2023-06-26T11:30:22;2.42;;;2.22;;
10831;SDS011;5469;48.574;8.768;2023-06-26T11:33:07;3.00;;;2.70;;
10831;SDS011;5469;48.574;8.768;2023-06-26T11:35:42;4.05;;;2.65;;
10831;SDS011;5469;48.574;8.768;2023-06-26T11:38:19;2.83;;;2.20;;
10831;SDS011;5469;48.574;8.768;2023-06-26T11:40:55;4.18;;;2.47;;
10831;SDS011;5469;48.574;8.768;2023-06-26T11:43:32;2.88;;;2.25;;
10831;SDS011;5469;48.574;8.768;2023-06-26T11:46:08;2.38;;;2.17;;
10831;SDS011;5469;48.574;8.768;2023-06-26T11:48:44;2.50;;;2.25;;
10831;SDS011;5469;48.574;8.768;2023-06-26T11:51:20;2.83;;;2.05;;
10831;SDS011;5469;48.574;8.768;2023-06-26T11:54:00;2.33;;;2.13;;
10831;SDS011;5469;48.574;8.768;2023-06-26T11:56:37;2.22;;;1.98;;
10831;SDS011;5469;48.574;8.768;2023-06-26T11:59:12;2.10;;;1.90;;
10831;SDS011;5469;48.574;8.768;2023-06-26T12:01:49;2.22;;;2.03;;
10831;SDS011;5469;48.574;8.768;2023-06-26T12:04:24;1.90;;;1.70;;
10831;SDS011;5469;48.574;8.768;2023-06-26T12:07:01;4.28;;;2.58;;
10831;SDS011;5469;48.574;8.768;2023-06-26T12:09:42;2.85;;;2.25;;
10831;SDS011;5469;48.574;8.768;2023-06-26T12:12:19;2.15;;;1.95;;
10831;SDS011;5469;48.574;8.768;2023-06-26T12:14:55;5.50;;;2.50;;
10831;SDS011;5469;48.574;8.768;2023-06-26T12:17:31;2.65;;;2.45;;
10831;SDS011;5469;48.574;8.768;2023-06-26T12:20:19;2.95;;;2.13;;
10831;SDS011;5469;48.574;8.768;2023-06-26T12:22:57;3.05;;;2.50;;
10831;SDS011;5469;48.574;8.768;2023-06-26T12:25:36;2.92;;;2.33;;
10831;SDS011;5469;48.574;8.768;2023-06-26T12:28:17;2.42;;;2.22;;
10831;SDS011;5469;48.574;8.768;2023-06-26T12:33:48;2.40;;;2.20;;
10831;SDS011;5469;48.574;8.768;2023-06-26T12:36:24;2.50;;;2.17;;
10831;SDS011;5469;48.574;8.768;2023-06-26T12:39:01;2.90;;;2.10;;
10831;SDS011;5469;48.574;8.768;2023-06-26T12:41:44;2.40;;;2.20;;
10831;SDS011;5469;48.574;8.768;2023-06-26T12:44:19;3.80;;;2.58;;
10831;SDS011;5469;48.574;8.768;2023-06-26T12:46:58;2.60;;;2.30;;
10831;SDS011;5469;48.574;8.768;2023-06-26T12:49:34;3.80;;;2.70;;
10831;SDS011;5469;48.574;8.768;2023-06-26T12:52:11;3.20;;;2.50;;
10831;SDS011;5469;48.574;8.768;2023-06-26T12:54:51;2.30;;;2.10;;
10831;SDS011;5469;48.574;8.768;2023-06-26T12:57:29;2.63;;;2.20;;
10831;SDS011;5469;48.574;8.768;2023-06-26T13:00:05;2.53;;;2.13;;
10831;SDS011;5469;48.574;8.768;2023-06-26T13:02:43;3.00;;;2.10;;
10831;SDS011;5469;48.574;8.768;2023-06-26T13:05:18;3.63;;;2.50;;
10831;SDS011;5469;48.574;8.768;2023-06-26T13:07:54;2.60;;;2.00;;
10831;SDS011;5469;48.574;8.768;2023-06-26T13:10:30;2.30;;;2.10;;
10831;SDS011;5469;48.574;8.768;2023-06-26T13:13:10;2.28;;;2.08;;
10831;SDS011;5469;48.574;8.768;2023-06-26T13:15:45;3.00;;;2.17;;
10831;SDS011;5469;48.574;8.768;2023-06-26T13:18:21;2.60;;;2.20;;
10831;SDS011;5469;48.574;8.768;2023-06-26T13:20:56;2.75;;;2.50;;
10831;SDS011;5469;48.574;8.768;2023-06-26T13:23:33;3.08;;;1.92;;
10831;SDS011;5469;48.574;8.768;2023-06-26T13:26:08;2.42;;;1.90;;
10831;SDS011;5469;48.574;8.768;2023-06-26T13:28:45;2.70;;;2.08;;
10831;SDS011;5469;48.574;8.768;2023-06-26T13:31:20;2.90;;;2.22;;
10831;SDS011;5469;48.574;8.768;2023-06-26T13:33:56;2.38;;;2.05;;
10831;SDS011;5469;48.574;8.768;2023-06-26T13:36:32;2.30;;;1.80;;
10831;SDS011;5469;48.574;8.768;2023-06-26T13:39:07;6.13;;;2.45;;
10831;SDS011;5469;48.574;8.768;2023-06-26T13:41:43;2.95;;;1.77;;
10831;SDS011;5469;48.574;8.768;2023-06-26T13:44:20;2.63;;;1.85;;
10831;SDS011;5469;48.574;8.768;2023-06-26T13:46:55;2.10;;;1.90;;
10831;SDS011;5469;48.574;8.768;2023-06-26T13:49:30;3.38;;;2.13;;
10831;SDS011;5469;48.574;8.768;2023-06-26T13:52:05;2.05;;;1.85;;
10831;SDS011;5469;48.574;8.768;2023-06-26T13:54:42;1.92;;;1.65;;
10831;SDS011;5469;48.574;8.768;2023-06-26T13:57:17;3.13;;;1.92;;
10831;SDS011;5469;48.574;8.768;2023-06-26T13:59:55;2.30;;;2.00;;
10831;SDS011;5469;48.574;8.768;2023-06-26T14:02:30;2.90;;;2.10;;
10831;SDS011;5469;48.574;8.768;2023-06-26T14:05:05;2.38;;;1.83;;
10831;SDS011;5469;48.574;8.768;2023-06-26T14:07:42;2.70;;;2.38;;
10831;SDS011;5469;48.574;8.768;2023-06-26T14:10:18;2.20;;;1.77;;
10831;SDS011;5469;48.574;8.768;2023-06-26T14:12:53;2.53;;;2.00;;
10831;SDS011;5469;48.574;8.768;2023-06-26T14:15:30;1.83;;;1.73;;
10831;SDS011;5469;48.574;8.768;2023-06-26T14:18:07;4.90;;;1.92;;
10831;SDS011;5469;48.574;8.768;2023-06-26T14:20:42;2.42;;;1.63;;
10831;SDS011;5469;48.574;8.768;2023-06-26T14:23:17;2.03;;;1.80;;
10831;SDS011;5469;48.574;8.768;2023-06-26T14:25:51;2.58;;;1.40;;
10831;SDS011;5469;48.574;8.768;2023-06-26T14:28:26;2.58;;;1.65;;
10831;SDS011;5469;48.574;8.768;2023-06-26T14:31:03;2.53;;;1.77;;
10831;SDS011;5469;48.574;8.768;2023-06-26T14:33:38;2.45;;;1.85;;
10831;SDS011;5469;48.574;8.768;2023-06-26T14:36:13;3.55;;;1.52;;
10831;SDS011;5469;48.574;8.768;2023-06-26T14:38:48;2.53;;;1.80;;
10831;SDS011;5469;48.574;8.768;2023-06-26T14:41:24;3.67;;;1.60;;
10831;SDS011;5469;48.574;8.768;2023-06-26T14:43:59;3.88;;;1.58;;
10831;SDS011;5469;48.574;8.768;2023-06-26T14:46:36;2.95;;;1.60;;
10831;SDS011;5469;48.574;8.768;2023-06-26T14:49:11;2.13;;;1.30;;
10831;SDS011;5469;48.574;8.768;2023-06-26T14:51:46;2.65;;;1.23;;
10831;SDS011;5469;48.574;8.768;2023-06-26T14:54:21;2.50;;;1.25;;
10831;SDS011;5469;48.574;8.768;2023-06-26T14:56:56;1.63;;;1.20;;
10831;SDS011;5469;48.574;8.768;2023-06-26T14:59:32;2.17;;;1.45;;
10831;SDS011;5469;48.574;8.768;2023-06-26T15:02:10;2.72;;;1.25;;
10831;SDS011;5469;48.574;8.768;2023-06-26T15:04:45;1.83;;;1.30;;
10831;SDS011;5469;48.574;8.768;2023-06-26T15:07:20;2.80;;;1.30;;
10831;SDS011;5469;48.574;8.768;2023-06-26T15:09:56;1.30;;;1.20;;
10831;SDS011;5469;48.574;8.768;2023-06-26T15:12:32;3.15;;;1.75;;
10831;SDS011;5469;48.574;8.768;2023-06-26T15:15:07;3.58;;;1.35;;
10831;SDS011;5469;48.574;8.768;2023-06-26T15:17:46;1.75;;;1.27;;
10831;SDS011;5469;48.574;8.768;2023-06-26T15:20:21;1.83;;;1.33;;
10831;SDS011;5469;48.574;8.768;2023-06-26T15:22:56;2.75;;;1.58;;
10831;SDS011;5469;48.574;8.768;2023-06-26T15:25:31;3.08;;;1.20;;
10831;SDS011;5469;48.574;8.768;2023-06-26T15:28:08;2.33;;;1.80;;
10831;SDS011;5469;48.574;8.768;2023-06-26T15:30:43;1.92;;;1.52;;
10831;SDS011;5469;48.574;8.768;2023-06-26T15:33:20;1.70;;;1.58;;
10831;SDS011;5469;48.574;8.768;2023-06-26T15:35:55;3.00;;;1.70;;
10831;SDS011;5469;48.574;8.768;2023-06-26T15:38:30;2.40;;;1.70;;
10831;SDS011;5469;48.574;8.768;2023-06-26T15:41:05;1.90;;;1.58;;
10831;SDS011;5469;48.574;8.768;2023-06-26T15:43:40;2.03;;;1.70;;
10831;SDS011;5469;48.574;8.768;2023-06-26T15:46:16;2.00;;;1.38;;
10831;SDS011;5469;48.574;8.768;2023-06-26T15:48:52;4.78;;;1.92;;
10831;SDS011;5469;48.574;8.768;2023-06-26T15:51:30;3.15;;;1.83;;
10831;SDS011;5469;48.574;8.768;2023-06-26T15:54:09;1.73;;;1.63;;
10831;SDS011;5469;48.574;8.768;2023-06-26T15:56:44;2.65;;;2.00;;
10831;SDS011;5469;48.574;8.768;2023-06-26T15:59:19;3.40;;;2.05;;